< < Back
Terminal Aerodrome Forecast


Current Version              Previous Versions:   1  2  3  4  5  6  7  8  9  

Terminal Aerodrome Forecast

763
FTUS42 KILM 280528
TAFFLO
TAF
KFLO 280528Z 2806/2906 03007KT P6SM FEW050 BKN250=

Latest METAR

467
SAUS70 KWBC 281100 RRH
MTRFLO
METAR KFLO 281053Z 01005KT 10SM CLR 08/04 A2995 RMK AO2 SLP138
T00780044


USA.gov is the U.S. government's official web portal to all federal, state and local government web resources and services.